Time;durP1;ratioP1;P1;durP2;ratioP2;P2;SDS_P1;SDS_P2;PMS_P1;PMS_P2;Temp;Humidity;BMP_temperature;BMP_pressure;BME280_temperature;BME280_humidity;BME280_pressure;Samples;Min_cycle;Max_cycle;Signal;HPM_P1;HPM_P2
2023/12/20 00:01:43;;;;;;;0.60;0.60;;;4.90;99.90;;;;;;5071574;28;20583;-81
2023/12/20 00:04:09;;;;;;;2.00;1.27;;;4.90;99.90;;;;;;5072470;28;20036;-81
2023/12/20 00:06:35;;;;;;;1.77;1.50;;;4.90;99.90;;;;;;5061591;28;20492;-81
2023/12/20 00:09:01;;;;;;;1.00;0.95;;;4.90;99.90;;;;;;5082569;28;20039;-81
2023/12/20 00:11:27;;;;;;;0.98;0.90;;;4.90;99.90;;;;;;5053283;28;20052;-82
2023/12/20 00:13:53;;;;;;;3.17;0.80;;;4.90;99.90;;;;;;5068808;28;20044;-82
2023/12/20 00:16:20;;;;;;;2.15;0.88;;;4.90;99.90;;;;;;5059533;28;20044;-81
2023/12/20 00:18:46;;;;;;;1.33;1.23;;;4.90;99.90;;;;;;5068798;28;20029;-80
2023/12/20 00:21:12;;;;;;;0.50;0.50;;;4.90;99.90;;;;;;5061605;28;20052;-82
2023/12/20 00:23:38;;;;;;;0.38;0.38;;;4.90;99.90;;;;;;5071133;28;20024;-83
2023/12/20 00:26:04;;;;;;;0.85;0.85;;;4.90;99.90;;;;;;5068431;28;20021;-82
2023/12/20 00:28:30;;;;;;;1.58;1.48;;;4.90;99.90;;;;;;5097843;28;20023;-83
2023/12/20 00:30:57;;;;;;;0.93;0.93;;;4.90;99.90;;;;;;5055328;28;20035;-81
2023/12/20 00:33:23;;;;;;;5.78;2.05;;;4.90;99.90;;;;;;5052596;28;20041;-81
2023/12/20 00:35:49;;;;;;;1.83;0.75;;;4.90;99.90;;;;;;5043421;28;20052;-82
2023/12/20 00:38:15;;;;;;;5.28;2.85;;;4.90;99.90;;;;;;5049582;28;20045;-81
2023/12/20 00:40:41;;;;;;;8.07;4.05;;;4.90;99.90;;;;;;5059093;28;20460;-82
2023/12/20 00:43:07;;;;;;;7.50;4.70;;;4.90;99.90;;;;;;5053898;28;20041;-82
2023/12/20 00:45:33;;;;;;;2.90;2.58;;;4.90;99.90;;;;;;5038186;28;20401;-82
2023/12/20 00:48:00;;;;;;;1.77;1.55;;;4.90;99.90;;;;;;5070839;28;20462;-81
2023/12/20 00:50:26;;;;;;;1.77;1.58;;;4.90;99.90;;;;;;5058219;28;20048;-83
2023/12/20 00:52:54;;;;;;;5.55;2.72;;;4.90;99.90;;;;;;5065822;28;20040;-82
2023/12/20 00:55:20;;;;;;;1.50;1.38;;;4.90;99.90;;;;;;5071691;28;20036;-83
2023/12/20 00:57:47;;;;;;;4.15;2.17;;;5.00;99.90;;;;;;5041277;28;20041;-82
2023/12/20 01:00:13;;;;;;;6.63;3.83;;;5.00;99.90;;;;;;5074339;28;20492;-81
2023/12/20 01:02:40;;;;;;;1.17;0.98;;;4.90;99.90;;;;;;5038019;28;20040;-81
2023/12/20 01:05:07;;;;;;;2.15;1.35;;;5.00;99.90;;;;;;5041340;28;20052;-80
2023/12/20 01:07:33;;;;;;;3.13;2.50;;;5.00;99.90;;;;;;5069762;28;20039;-82
2023/12/20 01:10:00;;;;;;;2.83;2.63;;;5.00;99.90;;;;;;5075623;28;20029;-81
2023/12/20 01:12:26;;;;;;;1.92;1.33;;;5.00;99.90;;;;;;5076903;28;20024;-81
2023/12/20 01:14:52;;;;;;;5.05;3.75;;;5.00;99.90;;;;;;5076100;28;20488;-81
2023/12/20 01:17:18;;;;;;;3.20;2.90;;;4.90;99.90;;;;;;5049292;28;20581;-81
2023/12/20 01:19:44;;;;;;;3.30;3.00;;;4.90;99.90;;;;;;5051789;28;20045;-81
2023/12/20 01:22:10;;;;;;;1.55;1.42;;;5.00;99.90;;;;;;5052004;28;20056;-80
2023/12/20 01:24:37;;;;;;;1.88;1.48;;;5.00;99.90;;;;;;5080824;28;20037;-80
2023/12/20 01:27:03;;;;;;;1.65;1.20;;;5.00;99.90;;;;;;5051569;28;20047;-81
2023/12/20 01:29:29;;;;;;;0.47;0.45;;;5.00;99.90;;;;;;5056082;28;20048;-83
2023/12/20 01:31:55;;;;;;;0.40;0.40;;;5.00;99.90;;;;;;5076167;28;20092;-81
2023/12/20 01:34:21;;;;;;;0.20;0.20;;;5.00;99.90;;;;;;5060355;28;20469;-82
2023/12/20 01:36:47;;;;;;;1.00;0.93;;;5.00;99.90;;;;;;5053811;28;20474;-83
2023/12/20 01:39:14;;;;;;;1.60;1.50;;;5.00;99.90;;;;;;5069389;28;20024;-82
2023/12/20 01:41:40;;;;;;;0.90;0.68;;;4.90;99.90;;;;;;5048119;28;20036;-83
2023/12/20 01:44:06;;;;;;;1.00;0.90;;;5.00;99.90;;;;;;5078181;28;20040;-83
2023/12/20 01:46:32;;;;;;;0.20;0.20;;;5.00;99.90;;;;;;5073323;28;20028;-82
2023/12/20 01:48:58;;;;;;;1.00;0.93;;;5.00;99.90;;;;;;5070772;28;20432;-82
2023/12/20 01:51:27;;;;;;;0.35;0.35;;;5.00;99.90;;;;;;5068366;28;20036;-82
2023/12/20 01:53:57;;;;;;;0.20;0.20;;;5.00;99.90;;;;;;5035542;28;20037;-84
2023/12/20 01:56:24;;;;;;;0.25;0.25;;;5.00;99.90;;;;;;5037053;28;20037;-82
2023/12/20 01:58:50;;;;;;;0.45;0.45;;;5.00;99.90;;;;;;5060786;28;20035;-82
2023/12/20 02:01:16;;;;;;;0.50;0.50;;;5.00;99.90;;;;;;5073255;28;20040;-83
2023/12/20 02:03:42;;;;;;;0.55;0.52;;;5.00;99.90;;;;;;5085211;28;20032;-80
2023/12/20 02:06:09;;;;;;;0.65;0.65;;;5.00;99.90;;;;;;5083900;28;20396;-83
2023/12/20 02:08:36;;;;;;;1.05;0.88;;;5.00;99.90;;;;;;5073445;28;20036;-82
2023/12/20 02:11:02;;;;;;;1.33;0.73;;;5.00;99.90;;;;;;5073926;28;20037;-83
2023/12/20 02:13:28;;;;;;;0.52;0.52;;;5.00;99.90;;;;;;5077228;28;20041;-85
2023/12/20 02:15:55;;;;;;;0.32;0.32;;;5.00;99.90;;;;;;5076304;28;20040;-81
2023/12/20 02:18:21;;;;;;;0.77;0.63;;;5.00;99.90;;;;;;5055376;28;20045;-82
2023/12/20 02:20:47;;;;;;;0.30;0.30;;;5.00;99.90;;;;;;5058166;28;20452;-82
2023/12/20 02:23:13;;;;;;;0.30;0.30;;;4.90;99.90;;;;;;5093434;28;20401;-83
2023/12/20 02:25:39;;;;;;;0.28;0.20;;;5.00;99.90;;;;;;5074746;28;20032;-82
2023/12/20 02:28:06;;;;;;;0.13;0.13;;;4.90;99.90;;;;;;5078205;28;20032;-82
2023/12/20 02:30:33;;;;;;;0.10;0.10;;;4.90;99.90;;;;;;5055696;28;20036;-85
2023/12/20 02:33:01;;;;;;;0.52;0.47;;;4.90;99.90;;;;;;5057953;28;20392;-83
2023/12/20 02:35:27;;;;;;;0.10;0.10;;;4.90;99.90;;;;;;5061038;28;20466;-82
2023/12/20 02:37:53;;;;;;;0.10;0.10;;;4.90;99.90;;;;;;5060633;28;20048;-83
2023/12/20 02:40:19;;;;;;;0.20;0.20;;;4.90;99.90;;;;;;5077521;28;20380;-80
2023/12/20 02:42:45;;;;;;;0.10;0.10;;;4.90;99.90;;;;;;5049122;28;20040;-83
2023/12/20 02:45:11;;;;;;;0.30;0.30;;;4.90;99.90;;;;;;5076578;28;20039;-83
2023/12/20 02:47:37;;;;;;;0.13;0.13;;;4.80;99.90;;;;;;5066269;28;20044;-83
2023/12/20 02:50:03;;;;;;;0.10;0.10;;;4.90;99.90;;;;;;5055148;28;20028;-82
2023/12/20 02:52:30;;;;;;;0.55;0.35;;;4.80;99.90;;;;;;5074032;28;20036;-86
2023/12/20 02:54:56;;;;;;;0.10;0.10;;;4.80;99.90;;;;;;5064284;28;20016;-84
2023/12/20 02:57:22;;;;;;;0.10;0.10;;;4.80;99.90;;;;;;5084783;28;20056;-88
2023/12/20 02:59:48;;;;;;;0.32;0.20;;;4.80;99.90;;;;;;5050838;28;20115;-83
2023/12/20 03:02:15;;;;;;;0.10;0.10;;;4.80;99.90;;;;;;5053395;28;20040;-82
2023/12/20 03:04:41;;;;;;;0.20;0.20;;;4.80;99.90;;;;;;5057201;28;20472;-83
2023/12/20 03:07:07;;;;;;;0.25;0.25;;;4.80;99.90;;;;;;5081363;28;20043;-83
2023/12/20 03:09:33;;;;;;;0.10;0.10;;;4.80;99.90;;;;;;5052778;28;20043;-83
2023/12/20 03:11:59;;;;;;;0.20;0.20;;;4.80;99.90;;;;;;5083480;28;20032;-81
2023/12/20 03:14:25;;;;;;;0.10;0.10;;;4.80;99.90;;;;;;5072787;28;20035;-82
2023/12/20 03:16:51;;;;;;;0.30;0.28;;;4.80;99.90;;;;;;5057182;28;20108;-84
2023/12/20 03:19:19;;;;;;;0.30;0.30;;;4.80;99.90;;;;;;5055754;28;20036;-83
2023/12/20 03:21:45;;;;;;;0.10;0.10;;;4.80;99.90;;;;;;5052317;28;20056;-84
2023/12/20 03:24:11;;;;;;;0.15;0.15;;;4.80;99.90;;;;;;5070766;28;20032;-84
2023/12/20 03:26:38;;;;;;;0.10;0.10;;;4.70;99.90;;;;;;5086996;28;20037;-84
2023/12/20 03:29:04;;;;;;;0.20;0.20;;;4.70;99.90;;;;;;5070615;28;20060;-82
2023/12/20 03:31:30;;;;;;;0.10;0.10;;;4.80;99.90;;;;;;5083457;28;20035;-83
2023/12/20 03:33:56;;;;;;;0.45;0.45;;;4.70;99.90;;;;;;5052125;28;20033;-83
2023/12/20 03:36:22;;;;;;;0.10;0.10;;;4.70;99.90;;;;;;5056244;28;20048;-83
2023/12/20 03:38:48;;;;;;;0.20;0.20;;;4.70;99.90;;;;;;5040242;28;20406;-83
2023/12/20 03:41:14;;;;;;;0.10;0.10;;;4.70;99.90;;;;;;5058993;28;20039;-82
2023/12/20 03:43:41;;;;;;;0.17;0.17;;;4.80;99.90;;;;;;5070881;28;20075;-83
2023/12/20 03:46:10;;;;;;;0.35;0.35;;;4.80;99.90;;;;;;5049342;28;20037;-82
2023/12/20 03:48:36;;;;;;;0.40;0.40;;;4.80;99.90;;;;;;5051139;28;20880;-82
2023/12/20 03:51:02;;;;;;;1.65;1.27;;;4.80;99.90;;;;;;5070731;28;20032;-82
2023/12/20 03:53:29;;;;;;;0.10;0.10;;;4.80;99.90;;;;;;5048264;28;20261;-82
2023/12/20 03:55:55;;;;;;;0.10;0.10;;;4.80;99.90;;;;;;5077524;28;20047;-81
2023/12/20 03:58:21;;;;;;;0.13;0.13;;;4.80;99.90;;;;;;5072466;28;20032;-82
2023/12/20 04:00:47;;;;;;;0.73;0.30;;;4.80;99.90;;;;;;5060943;28;20508;-82
2023/12/20 04:03:14;;;;;;;0.47;0.47;;;4.80;99.90;;;;;;5070601;28;20031;-82
2023/12/20 04:05:40;;;;;;;0.65;0.65;;;4.80;99.90;;;;;;5046632;28;20393;-82
2023/12/20 04:08:07;;;;;;;0.47;0.47;;;4.80;99.90;;;;;;5058227;28;20055;-83
2023/12/20 04:10:34;;;;;;;0.38;0.38;;;4.80;99.90;;;;;;5052495;28;20044;-83
2023/12/20 04:13:00;;;;;;;0.47;0.43;;;4.80;99.90;;;;;;5061978;28;20028;-83
2023/12/20 04:15:26;;;;;;;1.70;1.33;;;4.80;99.90;;;;;;5080652;28;20032;-84
2023/12/20 04:17:52;;;;;;;0.30;0.30;;;4.80;99.90;;;;;;5067864;28;20095;-83
2023/12/20 04:20:18;;;;;;;0.85;0.80;;;4.80;99.90;;;;;;5087366;28;20057;-83
2023/12/20 04:22:44;;;;;;;2.05;0.88;;;4.80;99.90;;;;;;5087440;28;20040;-83
2023/12/20 04:25:10;;;;;;;0.57;0.57;;;4.80;99.90;;;;;;5073696;28;20059;-84
2023/12/20 04:27:37;;;;;;;2.72;1.45;;;4.80;99.90;;;;;;5074195;28;20036;-83
2023/12/20 04:30:03;;;;;;;0.80;0.50;;;4.80;99.90;;;;;;5052311;28;20044;-83
2023/12/20 04:32:29;;;;;;;1.05;0.90;;;4.80;99.90;;;;;;5058834;28;20482;-82
2023/12/20 04:34:56;;;;;;;1.08;1.08;;;4.80;99.90;;;;;;5032183;28;20043;-82
2023/12/20 04:37:22;;;;;;;0.40;0.40;;;4.80;99.90;;;;;;5062243;28;20044;-82
2023/12/20 04:39:48;;;;;;;0.10;0.10;;;4.80;99.90;;;;;;5074819;28;20036;-83
2023/12/20 04:42:14;;;;;;;0.40;0.40;;;4.90;99.90;;;;;;5055601;28;20047;-83
2023/12/20 04:44:40;;;;;;;0.70;0.70;;;4.90;99.90;;;;;;5065107;28;20064;-83
2023/12/20 04:47:06;;;;;;;0.57;0.50;;;4.90;99.90;;;;;;5074471;28;20375;-83
2023/12/20 04:49:33;;;;;;;4.10;3.75;;;4.90;99.90;;;;;;5082428;28;20033;-83
2023/12/20 04:51:59;;;;;;;3.60;1.95;;;5.00;99.90;;;;;;5042488;28;20060;-83
2023/12/20 04:54:25;;;;;;;1.33;1.23;;;5.00;99.90;;;;;;5070161;28;20036;-82
2023/12/20 04:56:51;;;;;;;0.95;0.80;;;5.00;99.90;;;;;;5076902;28;20460;-83
2023/12/20 04:59:17;;;;;;;1.13;1.02;;;4.90;99.90;;;;;;5050369;28;20033;-82
2023/12/20 05:01:43;;;;;;;2.38;1.38;;;4.90;99.90;;;;;;5055638;28;20080;-83
2023/12/20 05:04:09;;;;;;;4.40;1.73;;;5.00;99.90;;;;;;5058633;28;20037;-83
2023/12/20 05:06:36;;;;;;;1.55;1.45;;;5.00;99.90;;;;;;5056284;28;20048;-84
2023/12/20 05:09:02;;;;;;;1.77;0.90;;;5.00;99.90;;;;;;5077094;28;20040;-83
2023/12/20 05:11:28;;;;;;;0.25;0.25;;;5.00;99.90;;;;;;5049130;28;20037;-83
2023/12/20 05:13:54;;;;;;;2.65;1.55;;;5.00;99.90;;;;;;5062437;28;20036;-83
2023/12/20 05:16:20;;;;;;;1.55;1.45;;;5.00;99.90;;;;;;5062904;28;20024;-84
2023/12/20 05:18:50;;;;;;;1.33;1.23;;;5.00;99.90;;;;;;5079751;28;20060;-84
2023/12/20 05:21:16;;;;;;;2.00;0.45;;;5.10;99.90;;;;;;5044225;28;20045;-84
2023/12/20 05:23:42;;;;;;;0.35;0.35;;;5.10;99.90;;;;;;5034661;28;20044;-85
2023/12/20 05:26:08;;;;;;;0.80;0.75;;;5.10;99.90;;;;;;5054223;28;20033;-86
2023/12/20 05:28:34;;;;;;;0.95;0.52;;;5.20;99.90;;;;;;5074155;28;20457;-85
2023/12/20 05:31:01;;;;;;;2.28;1.58;;;5.20;99.90;;;;;;5084554;28;20043;-85
2023/12/20 05:33:27;;;;;;;0.85;0.55;;;5.20;99.90;;;;;;5059614;28;20489;-86
2023/12/20 05:35:53;;;;;;;10.90;1.98;;;5.30;99.90;;;;;;5069095;28;20045;-85
2023/12/20 05:38:19;;;;;;;1.30;1.20;;;5.30;99.90;;;;;;5045983;28;20052;-85
2023/12/20 05:40:46;;;;;;;1.92;0.80;;;5.30;99.90;;;;;;5062692;28;20047;-83
2023/12/20 05:43:12;;;;;;;1.05;0.95;;;5.30;99.90;;;;;;5061691;28;20041;-85
2023/12/20 05:45:38;;;;;;;0.47;0.47;;;5.40;99.90;;;;;;5059794;28;20047;-84
2023/12/20 05:48:04;;;;;;;0.82;0.82;;;5.40;99.90;;;;;;5056780;28;20044;-83
2023/12/20 05:50:31;;;;;;;0.80;0.80;;;5.40;99.90;;;;;;5051540;28;20053;-84
2023/12/20 05:52:57;;;;;;;0.52;0.52;;;5.50;99.90;;;;;;5057507;28;20461;-82
2023/12/20 05:55:23;;;;;;;1.13;1.05;;;5.40;99.90;;;;;;5056778;28;20048;-83
2023/12/20 05:57:49;;;;;;;0.85;0.85;;;5.40;99.90;;;;;;5073523;28;20037;-92
2023/12/20 06:00:16;;;;;;;1.13;1.10;;;5.50;99.90;;;;;;5062600;28;20044;-85
2023/12/20 06:02:42;;;;;;;1.95;0.98;;;5.50;99.90;;;;;;5037368;28;20037;-84
2023/12/20 06:05:09;;;;;;;0.63;0.63;;;5.50;99.90;;;;;;5060436;28;20049;-83
2023/12/20 06:07:35;;;;;;;0.73;0.73;;;5.50;99.90;;;;;;5087391;28;20035;-85
2023/12/20 06:10:01;;;;;;;1.80;0.28;;;5.50;99.90;;;;;;5076283;28;20489;-84
2023/12/20 06:12:28;;;;;;;2.33;1.13;;;5.50;99.90;;;;;;5066855;28;20024;-82
2023/12/20 06:14:55;;;;;;;0.47;0.47;;;5.50;99.90;;;;;;5059895;28;20036;-83
2023/12/20 06:17:21;;;;;;;2.03;0.95;;;5.30;99.90;;;;;;5073079;28;20114;-84
2023/12/20 06:19:48;;;;;;;0.90;0.80;;;5.30;99.90;;;;;;5073960;28;20041;-84
2023/12/20 06:22:15;;;;;;;1.90;0.95;;;5.30;99.90;;;;;;5074858;28;20049;-83
2023/12/20 06:24:41;;;;;;;0.52;0.52;;;5.20;99.90;;;;;;5040820;28;20053;-85
2023/12/20 06:27:08;;;;;;;0.30;0.30;;;5.10;99.90;;;;;;5089385;28;20034;-82
2023/12/20 06:29:34;;;;;;;0.73;0.73;;;5.00;99.90;;;;;;5089277;28;20044;-83
2023/12/20 06:32:01;;;;;;;1.23;0.80;;;5.00;99.90;;;;;;5060051;28;20055;-81
2023/12/20 06:34:27;;;;;;;11.65;3.15;;;4.80;99.90;;;;;;5051034;28;20037;-82
2023/12/20 06:36:53;;;;;;;2.60;2.40;;;4.70;99.90;;;;;;5079250;28;20028;-82
2023/12/20 06:39:19;;;;;;;2.95;1.92;;;4.60;99.90;;;;;;5070793;28;20055;-82
2023/12/20 06:41:45;;;;;;;1.70;1.60;;;4.50;99.90;;;;;;5044748;28;20036;-83
2023/12/20 06:44:11;;;;;;;2.15;2.00;;;4.40;99.90;;;;;;5042411;28;20044;-82
2023/12/20 06:46:37;;;;;;;3.17;2.28;;;4.40;99.90;;;;;;5062026;28;20029;-84
2023/12/20 06:49:04;;;;;;;5.75;2.72;;;4.40;99.90;;;;;;5049089;28;20044;-83
2023/12/20 06:51:30;;;;;;;1.85;1.38;;;4.40;99.90;;;;;;5070900;28;20048;-83
2023/12/20 06:53:56;;;;;;;0.93;0.93;;;4.30;99.90;;;;;;5055820;28;20476;-83
2023/12/20 06:56:23;;;;;;;0.32;0.32;;;4.30;99.90;;;;;;5057598;28;20045;-82
2023/12/20 06:58:49;;;;;;;0.65;0.65;;;4.20;99.90;;;;;;5058356;28;20540;-79
2023/12/20 07:01:16;;;;;;;2.60;2.40;;;4.10;99.90;;;;;;5068011;28;20462;-79
2023/12/20 07:03:43;;;;;;;1.95;1.83;;;4.00;99.90;;;;;;5050811;28;20040;-80
2023/12/20 07:06:09;;;;;;;2.15;2.03;;;4.00;99.90;;;;;;5050643;28;20047;-80
2023/12/20 07:08:35;;;;;;;2.85;2.33;;;3.90;99.90;;;;;;5062351;28;20036;-80
2023/12/20 07:11:01;;;;;;;3.10;1.40;;;3.90;99.90;;;;;;5069447;28;20040;-78
2023/12/20 07:13:27;;;;;;;0.82;0.82;;;3.80;99.90;;;;;;5054403;28;20035;-78
2023/12/20 07:15:54;;;;;;;2.42;2.22;;;3.70;99.90;;;;;;5075431;28;20458;-79
2023/12/20 07:18:20;;;;;;;2.75;2.55;;;3.60;99.90;;;;;;5077147;28;20390;-77
2023/12/20 07:20:46;;;;;;;9.63;2.72;;;3.50;99.90;;;;;;5058370;28;20477;-79
2023/12/20 07:23:13;;;;;;;0.40;0.40;;;3.40;99.90;;;;;;5072050;28;20043;-78
2023/12/20 07:25:39;;;;;;;1.77;1.67;;;3.40;99.90;;;;;;5049953;28;20032;-78
2023/12/20 07:28:05;;;;;;;1.50;1.00;;;3.40;99.90;;;;;;5056866;28;20044;-77
2023/12/20 07:30:32;;;;;;;0.60;0.60;;;3.40;99.90;;;;;;5056552;28;20044;-77
2023/12/20 07:32:58;;;;;;;6.18;1.77;;;3.30;99.90;;;;;;5071573;28;20037;-78
2023/12/20 07:35:25;;;;;;;0.85;0.85;;;3.30;99.90;;;;;;5067871;28;20047;-77
2023/12/20 07:37:51;;;;;;;0.40;0.30;;;3.40;99.90;;;;;;5072441;28;20055;-77
2023/12/20 07:40:17;;;;;;;0.22;0.22;;;3.40;99.90;;;;;;5064219;28;20028;-78
2023/12/20 07:42:44;;;;;;;0.77;0.77;;;3.50;99.90;;;;;;5069474;28;20508;-78
2023/12/20 07:45:11;;;;;;;0.65;0.63;;;3.50;99.90;;;;;;5073921;28;20450;-77
2023/12/20 07:47:37;;;;;;;0.47;0.47;;;3.40;99.90;;;;;;5056589;28;20037;-78
2023/12/20 07:50:04;;;;;;;1.23;1.13;;;3.40;99.90;;;;;;5072042;28;20028;-78
2023/12/20 07:52:30;;;;;;;0.38;0.38;;;3.40;99.90;;;;;;5047664;28;20044;-78
2023/12/20 07:54:56;;;;;;;0.60;0.60;;;3.50;99.90;;;;;;5062484;28;20395;-78
2023/12/20 07:57:23;;;;;;;1.23;1.17;;;3.50;99.90;;;;;;5062520;28;20024;-79
2023/12/20 07:59:49;;;;;;;0.38;0.38;;;3.50;99.90;;;;;;5075657;28;20124;-79
2023/12/20 08:02:15;;;;;;;1.58;1.48;;;3.50;99.90;;;;;;5059506;28;20041;-78
2023/12/20 08:04:41;;;;;;;0.32;0.32;;;3.60;99.90;;;;;;5071195;28;20036;-83
2023/12/20 08:07:07;;;;;;;0.55;0.50;;;3.60;99.90;;;;;;5071043;28;20505;-78
2023/12/20 08:09:36;;;;;;;0.30;0.30;;;3.60;99.90;;;;;;5073973;28;20044;-79
2023/12/20 08:12:02;;;;;;;1.95;1.55;;;3.70;99.90;;;;;;5068864;28;20050;-80
2023/12/20 08:14:29;;;;;;;0.20;0.20;;;3.70;99.90;;;;;;5059717;28;20040;-79
2023/12/20 08:16:55;;;;;;;0.65;0.40;;;3.80;99.90;;;;;;5062669;28;20040;-80
2023/12/20 08:19:21;;;;;;;0.57;0.57;;;3.90;99.90;;;;;;5073367;28;20040;-80
2023/12/20 08:21:47;;;;;;;0.77;0.77;;;3.90;99.90;;;;;;5049682;28;20048;-79
2023/12/20 08:24:13;;;;;;;0.30;0.30;;;3.90;99.90;;;;;;5083432;28;20063;-79
2023/12/20 08:26:39;;;;;;;0.20;0.20;;;3.90;99.90;;;;;;5074333;28;20024;-78
2023/12/20 08:29:05;;;;;;;1.92;1.08;;;4.00;99.90;;;;;;5065574;28;20032;-79
2023/12/20 08:31:32;;;;;;;0.40;0.40;;;4.00;99.90;;;;;;5070868;28;20468;-78
2023/12/20 08:33:58;;;;;;;0.38;0.38;;;4.00;99.90;;;;;;5067755;28;20036;-78
2023/12/20 08:36:24;;;;;;;2.95;1.08;;;4.10;99.90;;;;;;5044424;28;20040;-80
2023/12/20 08:38:50;;;;;;;2.55;0.60;;;4.20;99.90;;;;;;5076259;28;20041;-79
2023/12/20 08:41:17;;;;;;;0.10;0.10;;;4.40;99.90;;;;;;5064576;28;20477;-79
2023/12/20 08:43:43;;;;;;;0.10;0.10;;;4.50;99.90;;;;;;5074468;28;20033;-81
2023/12/20 08:46:10;;;;;;;0.25;0.25;;;4.60;99.90;;;;;;5072887;28;20028;-79
2023/12/20 08:48:37;;;;;;;0.40;0.40;;;4.60;99.90;;;;;;5073691;28;20036;-78
2023/12/20 08:51:04;;;;;;;0.20;0.20;;;4.70;99.90;;;;;;5071380;28;20200;-81
2023/12/20 08:53:30;;;;;;;0.73;0.73;;;4.80;99.90;;;;;;5080127;28;20031;-77
2023/12/20 08:56:01;;;;;;;1.27;0.90;;;4.90;6.10;;;;;;5070098;28;20028;-80
2023/12/20 08:58:28;;;;;;;0.10;0.10;;;5.00;1.00;;;;;;5067247;28;20044;-78
2023/12/20 09:00:54;;;;;;;0.30;0.25;;;5.00;1.00;;;;;;5066839;28;20043;-78
2023/12/20 09:03:20;;;;;;;0.65;0.55;;;5.10;1.00;;;;;;5058337;28;20268;-79
2023/12/20 09:05:46;;;;;;;0.30;0.30;;;5.20;99.90;;;;;;5048938;28;20076;-80
2023/12/20 09:08:12;;;;;;;0.25;0.25;;;5.30;99.90;;;;;;5043761;28;20041;-73
2023/12/20 09:10:38;;;;;;;0.80;0.77;;;5.40;99.90;;;;;;5072428;28;20413;-73
2023/12/20 09:13:04;;;;;;;1.23;1.13;;;5.60;99.90;;;;;;5075193;28;20082;-73
2023/12/20 09:15:33;;;;;;;0.10;0.10;;;5.60;99.90;;;;;;5064898;28;20055;-73
2023/12/20 09:18:00;;;;;;;13.10;1.27;;;5.50;99.90;;;;;;5062233;28;20036;-75
2023/12/20 09:20:27;;;;;;;3.20;0.55;;;5.50;99.90;;;;;;5074705;28;20063;-72
2023/12/20 09:22:53;;;;;;;0.85;0.63;;;5.70;60.10;;;;;;5074574;28;20373;-74
2023/12/20 09:25:19;;;;;;;2.50;0.90;;;5.80;50.70;;;;;;5081779;28;20499;-75
2023/12/20 09:27:46;;;;;;;0.20;0.20;;;5.90;81.90;;;;;;5082310;28;20024;-74
2023/12/20 09:30:12;;;;;;;0.10;0.10;;;5.80;99.90;;;;;;5076085;28;20370;-73
2023/12/20 09:32:38;;;;;;;14.13;1.75;;;5.90;95.20;;;;;;5071453;28;20037;-73
2023/12/20 09:35:06;;;;;;;0.30;0.30;;;5.90;56.40;;;;;;5077319;28;20039;-73
2023/12/20 09:37:32;;;;;;;0.20;0.20;;;5.90;49.60;;;;;;5074996;28;20040;-72
2023/12/20 09:39:59;;;;;;;0.75;0.45;;;5.90;14.20;;;;;;5080030;28;20032;-72
2023/12/20 09:42:38;;;;;;;0.22;0.22;;;5.90;1.00;;;;;;5072371;28;20840;-73
2023/12/20 09:45:08;;;;;;;0.28;0.28;;;5.80;23.70;;;;;;5072424;28;20040;-73
2023/12/20 09:47:35;;;;;;;0.30;0.30;;;6.00;36.40;;;;;;5078864;28;20036;-73
2023/12/20 09:50:02;;;;;;;0.57;0.57;;;6.20;27.20;;;;;;5083402;28;20051;-73
2023/12/20 09:52:30;;;;;;;0.10;0.10;;;6.40;1.00;;;;;;5074432;28;20032;-74
2023/12/20 09:54:57;;;;;;;0.25;0.25;;;6.60;1.00;;;;;;5071434;28;20033;-74
2023/12/20 09:57:23;;;;;;;0.10;0.10;;;6.60;1.00;;;;;;5078185;28;20048;-74
2023/12/20 09:59:50;;;;;;;0.65;0.57;;;6.60;1.00;;;;;;5081911;28;20032;-74
2023/12/20 10:02:18;;;;;;;0.35;0.35;;;6.50;1.00;;;;;;5075682;28;20478;-77
2023/12/20 10:04:47;;;;;;;0.15;0.15;;;6.40;1.00;;;;;;5075862;28;20052;-73
2023/12/20 10:07:14;;;;;;;0.70;0.38;;;6.40;1.00;;;;;;5067697;28;20035;-73
2023/12/20 10:09:41;;;;;;;0.45;0.45;;;6.40;1.00;;;;;;5079333;28;20183;-74
2023/12/20 10:12:08;;;;;;;0.10;0.10;;;6.40;1.00;;;;;;5079412;28;20029;-74
2023/12/20 10:14:34;;;;;;;0.47;0.47;;;6.40;13.20;;;;;;5072354;28;20461;-72
2023/12/20 10:17:05;;;;;;;0.20;0.20;;;6.30;1.00;;;;;;5073370;28;20037;-73
2023/12/20 10:19:31;;;;;;;1.30;0.85;;;6.40;1.00;;;;;;5090660;28;20515;-74
2023/12/20 10:21:59;;;;;;;0.50;0.50;;;6.40;1.00;;;;;;5061084;28;20095;-74
2023/12/20 10:24:28;;;;;;;8.10;1.00;;;6.40;1.00;;;;;;5072698;28;20481;-74
2023/12/20 10:27:08;;;;;;;1.08;1.08;;;6.40;1.00;;;;;;5069735;28;20040;-74
2023/12/20 10:29:35;;;;;;;0.17;0.17;;;6.40;1.00;;;;;;5079272;28;20354;-73
2023/12/20 10:32:24;;;;;;;0.50;0.50;;;6.50;1.00;;;;;;5074942;28;20055;-74
2023/12/20 10:34:51;;;;;;;0.10;0.10;;;6.50;1.00;;;;;;5069280;28;20040;-74
2023/12/20 10:37:18;;;;;;;0.50;0.50;;;6.60;1.00;;;;;;5070798;28;20386;-74
2023/12/20 10:39:56;;;;;;;0.20;0.20;;;6.60;1.00;;;;;;5077180;28;20052;-73
2023/12/20 10:42:24;;;;;;;0.98;0.68;;;6.60;1.00;;;;;;5080343;28;20039;-73
2023/12/20 10:44:51;;;;;;;0.20;0.20;;;6.60;1.00;;;;;;5068192;28;20036;-73
2023/12/20 10:47:18;;;;;;;0.47;0.45;;;6.70;1.00;;;;;;5050178;28;20056;-73
2023/12/20 10:49:45;;;;;;;0.10;0.10;;;6.70;1.00;;;;;;5068373;28;20044;-73
2023/12/20 10:52:12;;;;;;;0.17;0.17;;;6.80;1.00;;;;;;5071108;28;20049;-73
2023/12/20 10:54:40;;;;;;;1.38;1.17;;;6.70;1.00;;;;;;5071234;28;20484;-72
2023/12/20 10:57:06;;;;;;;0.10;0.10;;;6.70;1.00;;;;;;5069746;28;20036;-72
2023/12/20 10:59:41;;;;;;;0.55;0.52;;;6.60;1.00;;;;;;5077211;28;20041;-77
2023/12/20 11:02:07;;;;;;;0.20;0.20;;;6.60;1.00;;;;;;5074595;28;20044;-73
2023/12/20 11:04:58;;;;;;;3.72;1.52;;;6.60;1.00;;;;;;5059214;28;20112;-73
2023/12/20 11:07:40;;;;;;;0.10;0.10;;;6.60;1.00;;;;;;5071509;28;20029;-73
2023/12/20 11:10:18;;;;;;;;;;;6.60;1.00;;;;;;5073403;28;20047;-73
2023/12/20 11:12:48;;;;;;;0.30;0.30;;;6.60;1.00;;;;;;5074652;28;19912;-73
2023/12/20 11:15:16;;;;;;;0.47;0.47;;;6.60;1.00;;;;;;5082901;28;20036;-74
2023/12/20 11:17:46;;;;;;;0.13;0.13;;;6.60;1.00;;;;;;5072971;28;20032;-74
2023/12/20 11:20:13;;;;;;;0.10;0.10;;;6.50;1.00;;;;;;5071758;28;20045;-73
2023/12/20 11:22:51;;;;;;;2.25;0.57;;;6.50;1.00;;;;;;5073823;28;20044;-73
2023/12/20 11:25:18;;;;;;;0.20;0.20;;;6.50;1.00;;;;;;5081330;28;20067;-74
2023/12/20 11:27:44;;;;;;;4.10;1.55;;;6.50;1.00;;;;;;5069508;28;20024;-74
2023/12/20 11:30:11;;;;;;;0.90;0.90;;;6.60;1.00;;;;;;5072436;28;20592;-73
2023/12/20 11:32:39;;;;;;;0.80;0.38;;;6.60;1.00;;;;;;5072093;28;20029;-74
2023/12/20 11:35:08;;;;;;;0.13;0.13;;;6.70;1.00;;;;;;5078273;28;20056;-76
2023/12/20 11:37:42;;;;;;;2.03;0.80;;;6.80;99.90;;;;;;5082737;28;20389;-73
2023/12/20 11:40:14;;;;;;;0.38;0.38;;;6.90;99.90;;;;;;5071192;28;20036;-74
2023/12/20 11:42:50;;;;;;;0.20;0.20;;;6.90;99.90;;;;;;5078150;28;20034;-77
2023/12/20 11:45:21;;;;;;;1.55;0.57;;;6.80;99.90;;;;;;5046584;28;20040;-76
2023/12/20 11:47:55;;;;;;;0.85;0.57;;;6.80;99.90;;;;;;5085170;28;20036;-76
2023/12/20 11:50:22;;;;;;;1.95;1.48;;;6.80;99.90;;;;;;5071815;28;20033;-73
2023/12/20 11:52:49;;;;;;;0.77;0.77;;;6.80;99.90;;;;;;5072014;28;20036;-73
2023/12/20 11:55:16;;;;;;;0.20;0.20;;;6.90;99.90;;;;;;5084853;28;20040;-74
2023/12/20 11:57:43;;;;;;;0.25;0.25;;;6.90;99.90;;;;;;5074674;28;20043;-74
2023/12/20 12:00:10;;;;;;;0.90;0.68;;;6.90;99.90;;;;;;5070807;28;20355;-75
2023/12/20 12:02:39;;;;;;;0.20;0.20;;;6.90;99.90;;;;;;5071922;28;20082;-75
2023/12/20 12:05:06;;;;;;;0.10;0.10;;;6.80;99.90;;;;;;5071749;28;20024;-73
2023/12/20 12:07:34;;;;;;;0.10;0.10;;;6.80;99.90;;;;;;5069466;28;20036;-74
2023/12/20 12:10:01;;;;;;;0.20;0.20;;;6.80;99.90;;;;;;5056819;28;20048;-74
2023/12/20 12:12:27;;;;;;;0.10;0.10;;;6.80;99.90;;;;;;5068215;28;20033;-75
2023/12/20 12:14:56;;;;;;;0.20;0.20;;;6.80;99.90;;;;;;5055548;28;20056;-74
2023/12/20 12:17:23;;;;;;;7.07;1.45;;;6.80;99.90;;;;;;5073070;28;20025;-74
2023/12/20 12:19:49;;;;;;;1.15;1.08;;;6.80;99.90;;;;;;5083354;28;20035;-75
2023/12/20 12:22:19;;;;;;;1.80;1.13;;;6.80;99.90;;;;;;5049966;28;20048;-74
2023/12/20 12:24:47;;;;;;;0.20;0.20;;;6.80;99.90;;;;;;5069958;28;20036;-75
2023/12/20 12:27:13;;;;;;;0.10;0.10;;;6.80;99.90;;;;;;5071014;28;20036;-74
2023/12/20 12:29:40;;;;;;;7.20;1.17;;;6.80;99.90;;;;;;5080663;28;20051;-73
2023/12/20 12:32:08;;;;;;;0.45;0.45;;;6.80;99.90;;;;;;5074382;28;20059;-76
2023/12/20 12:34:35;;;;;;;1.45;0.65;;;6.80;99.90;;;;;;5068921;28;20028;-76
2023/12/20 12:37:02;;;;;;;0.55;0.55;;;6.80;99.90;;;;;;5066022;28;20028;-75
2023/12/20 12:39:29;;;;;;;1.27;1.17;;;6.70;99.90;;;;;;5074648;28;20032;-75
2023/12/20 12:41:59;;;;;;;0.03;0.03;;;6.70;99.90;;;;;;5083843;28;20033;-81
2023/12/20 12:44:25;;;;;;;2.15;1.00;;;6.70;99.90;;;;;;5071583;28;20028;-78
2023/12/20 12:46:53;;;;;;;0.22;0.22;;;6.70;99.90;;;;;;5069176;28;20469;-77
2023/12/20 12:49:23;;;;;;;0.20;0.20;;;6.70;99.90;;;;;;5075319;28;20397;-77
2023/12/20 12:51:49;;;;;;;0.45;0.45;;;6.60;99.90;;;;;;5040826;28;20040;-75
2023/12/20 12:54:16;;;;;;;0.57;0.57;;;6.60;99.90;;;;;;5072409;28;20116;-77
2023/12/20 12:56:43;;;;;;;0.35;0.35;;;6.60;99.90;;;;;;5064131;28;20024;-77